createdAt,value
2022-10-07T00:00:16.267Z,97.94
2022-10-07T00:01:16.336Z,97.65
2022-10-07T00:02:16.310Z,97.27
2022-10-07T00:03:16.276Z,97.36
2022-10-07T00:04:16.264Z,97.65
2022-10-07T00:05:16.259Z,97.65
2022-10-07T00:06:16.275Z,97.36
2022-10-07T00:07:16.271Z,97.31
2022-10-07T00:08:16.294Z,97.22
2022-10-07T00:09:16.264Z,97.70
2022-10-07T00:10:16.253Z,97.51
2022-10-07T00:11:16.254Z,97.79
2022-10-07T00:12:16.252Z,98.36
2022-10-07T00:13:16.253Z,98.74
2022-10-07T00:14:16.273Z,99.03
2022-10-07T00:15:16.262Z,98.94
2022-10-07T00:16:16.296Z,99.13
2022-10-07T00:17:16.266Z,98.94
2022-10-07T00:18:16.259Z,99.03
2022-10-07T00:19:16.264Z,98.65
2022-10-07T00:20:16.256Z,98.46
2022-10-07T00:21:16.254Z,98.18
2022-10-07T00:22:16.250Z,98.27
2022-10-07T00:23:16.249Z,98.36
2022-10-07T00:24:16.263Z,99.22
2022-10-07T00:25:16.249Z,99.13
2022-10-07T00:26:16.243Z,99.51
2022-10-07T00:27:16.249Z,99.79
2022-10-07T00:28:16.297Z,99.60
2022-10-07T00:29:16.248Z,99.32
2022-10-07T00:30:16.255Z,99.32
2022-10-07T00:31:16.293Z,99.51
2022-10-07T00:32:16.231Z,99.60
2022-10-07T00:33:16.239Z,99.41
2022-10-07T00:34:16.237Z,99.79
2022-10-07T00:35:16.238Z,99.51
2022-10-07T00:36:16.226Z,99.60
2022-10-07T00:37:16.223Z,99.60
2022-10-07T00:38:16.218Z,99.51
2022-10-07T00:39:16.229Z,99.41
2022-10-07T00:40:16.240Z,99.41
2022-10-07T00:41:16.226Z,99.41
2022-10-07T00:42:16.237Z,98.84
2022-10-07T00:43:16.222Z,98.94
2022-10-07T00:44:16.210Z,99.03
2022-10-07T00:45:16.225Z,98.94
2022-10-07T00:46:16.435Z,99.22
2022-10-07T00:47:16.222Z,99.03
2022-10-07T00:48:16.225Z,99.03
2022-10-07T00:49:16.203Z,99.41
2022-10-07T00:50:16.225Z,99.13
2022-10-07T00:51:16.212Z,99.13
2022-10-07T00:52:16.202Z,99.03
2022-10-07T00:53:16.202Z,98.55
2022-10-07T00:54:16.199Z,99.03
2022-10-07T00:55:16.206Z,98.84
2022-10-07T00:56:16.216Z,99.32
2022-10-07T00:57:16.209Z,99.03
2022-10-07T00:58:16.197Z,99.32
2022-10-07T00:59:16.206Z,99.03
2022-10-07T01:00:16.202Z,99.22
2022-10-07T01:01:16.261Z,99.13
2022-10-07T01:02:16.293Z,99.03
2022-10-07T01:03:16.197Z,99.22
2022-10-07T01:04:16.201Z,98.74
2022-10-07T01:05:16.192Z,98.74
2022-10-07T01:06:16.197Z,98.65
2022-10-07T01:07:16.198Z,98.84
2022-10-07T01:08:16.194Z,98.65
2022-10-07T01:09:16.185Z,98.65
2022-10-07T01:10:16.196Z,99.51
2022-10-07T01:11:16.195Z,99.99
2022-10-07T01:12:16.187Z,99.99
2022-10-07T01:13:16.200Z,99.99
2022-10-07T01:14:16.185Z,99.32
2022-10-07T01:15:16.186Z,99.60
2022-10-07T01:16:16.244Z,99.79
2022-10-07T01:17:16.169Z,99.79
2022-10-07T01:18:16.176Z,99.41
2022-10-07T01:19:16.193Z,99.60
2022-10-07T01:20:16.168Z,99.51
2022-10-07T01:21:16.165Z,99.98
2022-10-07T01:22:16.181Z,99.89
2022-10-07T01:23:16.163Z,99.41
2022-10-07T01:24:16.201Z,99.79
2022-10-07T01:25:16.163Z,99.69
2022-10-07T01:26:16.173Z,99.69
2022-10-07T01:27:16.163Z,99.79
2022-10-07T01:28:16.173Z,99.79
2022-10-07T01:29:16.169Z,99.60
2022-10-07T01:30:16.164Z,99.89
2022-10-07T01:31:16.204Z,99.99
2022-10-07T01:32:16.193Z,99.99
2022-10-07T01:33:16.152Z,99.41
2022-10-07T01:34:16.157Z,98.94
2022-10-07T01:35:16.177Z,99.27
2022-10-07T01:36:16.148Z,99.79
2022-10-07T01:37:16.163Z,99.74
2022-10-07T01:38:16.158Z,99.74
2022-10-07T01:39:16.162Z,99.65
2022-10-07T01:40:16.166Z,99.99
2022-10-07T01:41:16.160Z,99.99
2022-10-07T01:42:16.153Z,99.99
2022-10-07T01:43:16.141Z,99.99
2022-10-07T01:44:16.142Z,99.99
2022-10-07T01:45:16.149Z,99.93
2022-10-07T01:46:16.232Z,99.65
2022-10-07T01:47:16.138Z,99.74
2022-10-07T01:48:16.133Z,99.79
2022-10-07T01:49:16.142Z,99.27
2022-10-07T01:50:16.129Z,99.46
2022-10-07T01:51:16.138Z,99.36
2022-10-07T01:52:16.153Z,99.36
2022-10-07T01:53:16.136Z,98.98
2022-10-07T01:54:16.125Z,99.41
2022-10-07T01:55:16.123Z,99.08
2022-10-07T01:56:16.134Z,98.98
2022-10-07T01:57:16.127Z,98.98
2022-10-07T01:58:16.132Z,99.17
2022-10-07T01:59:16.132Z,98.98
2022-10-07T02:00:16.132Z,99.08
2022-10-07T02:01:16.166Z,98.60
2022-10-07T02:02:16.143Z,98.98
2022-10-07T02:03:16.159Z,99.08
2022-10-07T02:04:16.119Z,99.36
2022-10-07T02:05:16.124Z,99.84
2022-10-07T02:06:16.120Z,99.55
2022-10-07T02:07:16.108Z,99.93
2022-10-07T02:08:16.137Z,99.74
2022-10-07T02:09:16.105Z,99.27
2022-10-07T02:10:16.108Z,99.27
2022-10-07T02:11:16.108Z,99.46
2022-10-07T02:12:16.111Z,99.36
2022-10-07T02:13:16.112Z,99.93
2022-10-07T02:14:16.109Z,99.93
2022-10-07T02:15:16.113Z,99.74
2022-10-07T02:16:16.185Z,99.55
2022-10-07T02:17:16.107Z,99.99
2022-10-07T02:18:16.095Z,99.99
2022-10-07T02:19:16.126Z,99.99
2022-10-07T02:20:16.089Z,99.99
2022-10-07T02:21:16.102Z,99.99
2022-10-07T02:22:16.089Z,99.99
2022-10-07T02:23:16.087Z,99.99
2022-10-07T02:24:16.087Z,99.99
2022-10-07T02:25:16.122Z,99.99
2022-10-07T02:26:16.085Z,99.99
2022-10-07T02:27:16.094Z,99.99
2022-10-07T02:28:16.113Z,99.99
2022-10-07T02:29:16.105Z,99.99
2022-10-07T02:30:16.076Z,99.99
2022-10-07T02:31:16.126Z,99.99
2022-10-07T02:32:16.072Z,99.99
2022-10-07T02:33:16.089Z,99.99
2022-10-07T02:34:19.724Z,99.99
2022-10-07T02:35:16.085Z,99.99
2022-10-07T02:36:16.070Z,99.99
2022-10-07T02:37:16.080Z,99.99
2022-10-07T02:38:16.106Z,99.99
2022-10-07T02:39:16.066Z,99.99
2022-10-07T02:40:16.075Z,99.99
2022-10-07T02:41:16.065Z,99.99
2022-10-07T02:42:16.080Z,99.99
2022-10-07T02:43:16.071Z,99.99
2022-10-07T02:44:16.062Z,99.99
2022-10-07T02:45:16.068Z,99.99
2022-10-07T02:46:16.153Z,99.99
2022-10-07T02:47:16.081Z,99.99
2022-10-07T02:48:16.059Z,99.99
2022-10-07T02:49:16.052Z,99.99
2022-10-07T02:50:16.047Z,99.99
2022-10-07T02:51:20.616Z,99.99
2022-10-07T02:52:16.056Z,99.99
2022-10-07T02:53:16.054Z,99.99
2022-10-07T02:54:16.050Z,99.99
2022-10-07T02:55:16.053Z,99.99
2022-10-07T02:56:16.040Z,99.99
2022-10-07T02:57:16.059Z,99.99
2022-10-07T02:58:16.050Z,99.99
2022-10-07T02:59:16.043Z,99.99
2022-10-07T03:00:16.044Z,99.99
2022-10-07T03:01:16.089Z,99.99
2022-10-07T03:02:16.046Z,99.99
2022-10-07T03:03:16.100Z,99.99
2022-10-07T03:04:16.031Z,99.98
2022-10-07T03:05:16.047Z,99.99
2022-10-07T03:06:16.037Z,99.93
2022-10-07T03:07:16.039Z,99.99
2022-10-07T03:08:16.046Z,99.99
2022-10-07T03:09:16.033Z,99.99
2022-10-07T03:10:16.029Z,99.99
2022-10-07T03:11:16.017Z,99.99
2022-10-07T03:12:16.027Z,99.99
2022-10-07T03:13:16.023Z,99.99
2022-10-07T03:14:16.040Z,99.99
2022-10-07T03:15:16.017Z,99.99
2022-10-07T03:16:16.067Z,99.99
2022-10-07T03:17:16.016Z,99.99
2022-10-07T03:18:16.020Z,99.99
2022-10-07T03:19:16.017Z,99.99
2022-10-07T03:20:16.009Z,99.99
2022-10-07T03:21:16.017Z,99.99
2022-10-07T03:22:16.011Z,99.99
2022-10-07T03:23:16.007Z,99.99
2022-10-07T03:24:16.017Z,99.99
2022-10-07T03:25:15.992Z,99.99
2022-10-07T03:26:16.009Z,99.99
2022-10-07T03:27:15.993Z,99.99
2022-10-07T03:28:16.064Z,99.99
2022-10-07T03:29:15.999Z,99.99
2022-10-07T03:30:16.003Z,99.99
2022-10-07T03:31:16.031Z,99.99
2022-10-07T03:32:15.988Z,99.99
2022-10-07T03:33:15.991Z,99.99
2022-10-07T03:34:15.996Z,99.99
2022-10-07T03:35:16.004Z,99.99
2022-10-07T03:36:15.982Z,99.99
2022-10-07T03:37:15.975Z,99.99
2022-10-07T03:38:15.976Z,99.99
2022-10-07T03:39:15.986Z,99.99
2022-10-07T03:40:15.991Z,99.99
2022-10-07T03:41:15.969Z,99.99
2022-10-07T03:42:15.987Z,99.99
2022-10-07T03:43:15.981Z,99.99
2022-10-07T03:44:15.972Z,99.99
2022-10-07T03:45:15.998Z,99.99
2022-10-07T03:46:16.028Z,99.99
2022-10-07T03:47:15.985Z,99.99
2022-10-07T03:48:15.972Z,99.99
2022-10-07T03:49:15.958Z,99.99
2022-10-07T03:50:16.016Z,99.99
2022-10-07T03:51:15.968Z,99.99
2022-10-07T03:52:15.968Z,99.99
2022-10-07T03:53:15.975Z,99.99
2022-10-07T03:54:15.954Z,99.99
2022-10-07T03:55:15.957Z,99.99
2022-10-07T03:56:15.973Z,99.99
2022-10-07T03:57:15.963Z,99.99
2022-10-07T03:58:15.959Z,99.99
2022-10-07T03:59:15.947Z,99.99
2022-10-07T04:00:15.943Z,99.99
2022-10-07T04:01:15.963Z,99.99
2022-10-07T04:02:15.942Z,99.99
2022-10-07T04:03:15.981Z,99.99
2022-10-07T04:04:15.978Z,99.99
2022-10-07T04:05:15.945Z,99.99
2022-10-07T04:06:15.958Z,99.99
2022-10-07T04:07:15.945Z,99.99
2022-10-07T04:08:15.938Z,99.99
2022-10-07T04:09:15.929Z,99.99
2022-10-07T04:10:15.949Z,99.99
2022-10-07T04:11:15.931Z,99.99
2022-10-07T04:12:15.924Z,99.99
2022-10-07T04:13:15.934Z,99.99
2022-10-07T04:14:15.928Z,99.99
2022-10-07T04:15:15.938Z,99.99
2022-10-07T04:16:15.954Z,99.99
2022-10-07T04:17:15.928Z,99.99
2022-10-07T04:18:15.930Z,99.99
2022-10-07T04:19:15.927Z,99.99
2022-10-07T04:20:15.944Z,99.99
2022-10-07T04:21:15.924Z,99.99
2022-10-07T04:22:15.911Z,99.99
2022-10-07T04:23:15.915Z,99.99
2022-10-07T04:24:15.938Z,99.99
2022-10-07T04:25:15.913Z,99.99
2022-10-07T04:26:15.905Z,99.99
2022-10-07T04:27:33.861Z,99.99
2022-10-07T04:28:15.969Z,99.99
2022-10-07T04:29:15.909Z,99.99
2022-10-07T04:30:15.960Z,99.99
2022-10-07T04:31:15.975Z,99.99
2022-10-07T04:32:15.891Z,99.99
2022-10-07T04:33:15.892Z,99.99
2022-10-07T04:34:15.897Z,99.99
2022-10-07T04:35:15.897Z,99.99
2022-10-07T04:36:15.888Z,99.99
2022-10-07T04:37:15.904Z,99.99
2022-10-07T04:38:15.908Z,99.99
2022-10-07T04:39:15.881Z,99.99
2022-10-07T04:40:15.883Z,99.99
2022-10-07T04:41:15.875Z,99.99
2022-10-07T04:42:15.888Z,99.99
2022-10-07T04:43:15.873Z,99.99
2022-10-07T04:44:15.891Z,99.99
2022-10-07T04:45:15.883Z,99.99
2022-10-07T04:46:15.962Z,99.99
2022-10-07T04:47:15.936Z,99.99
2022-10-07T04:48:15.879Z,99.99
2022-10-07T04:49:15.873Z,99.99
2022-10-07T04:50:15.886Z,99.99
2022-10-07T04:51:15.881Z,99.99
2022-10-07T04:52:15.862Z,99.99
2022-10-07T04:53:15.877Z,99.99
2022-10-07T04:54:15.880Z,99.99
2022-10-07T04:55:15.881Z,99.99
2022-10-07T04:56:15.862Z,99.99
2022-10-07T04:57:15.857Z,99.99
2022-10-07T04:58:15.852Z,99.99
2022-10-07T04:59:15.850Z,99.99
2022-10-07T05:00:15.851Z,99.99
2022-10-07T05:01:15.897Z,99.99
2022-10-07T05:02:15.923Z,99.99
2022-10-07T05:03:15.858Z,99.99
2022-10-07T05:04:15.851Z,99.99
2022-10-07T05:05:15.856Z,99.99
2022-10-07T05:06:15.836Z,99.99
2022-10-07T05:07:15.844Z,99.99
2022-10-07T05:08:15.841Z,99.99
2022-10-07T05:09:15.833Z,99.99
2022-10-07T05:10:15.841Z,99.99
2022-10-07T05:11:15.831Z,99.99
2022-10-07T05:12:15.836Z,99.99
2022-10-07T05:13:15.861Z,99.99
2022-10-07T05:14:15.836Z,99.99
2022-10-07T05:15:15.820Z,99.99
2022-10-07T05:16:15.931Z,99.99
2022-10-07T05:17:15.839Z,99.99
2022-10-07T05:18:15.816Z,99.99
2022-10-07T05:19:15.816Z,99.99
2022-10-07T05:20:15.813Z,99.99
2022-10-07T05:21:15.819Z,99.99
2022-10-07T05:22:15.826Z,99.99
2022-10-07T05:23:15.823Z,99.99
2022-10-07T05:24:15.815Z,99.99
2022-10-07T05:25:15.811Z,99.99
2022-10-07T05:26:15.819Z,99.99
2022-10-07T05:27:15.808Z,99.99
2022-10-07T05:28:15.854Z,99.99
2022-10-07T05:29:15.812Z,99.99
2022-10-07T05:30:15.802Z,99.99
2022-10-07T05:31:15.820Z,99.99
2022-10-07T05:32:15.793Z,99.99
2022-10-07T05:33:15.806Z,99.99
2022-10-07T05:34:15.800Z,99.99
2022-10-07T05:35:15.809Z,99.99
2022-10-07T05:36:15.812Z,99.99
2022-10-07T05:37:15.795Z,99.99
2022-10-07T05:38:15.793Z,99.99
2022-10-07T05:39:15.786Z,99.99
2022-10-07T05:40:15.793Z,99.99
2022-10-07T05:41:15.783Z,99.99
2022-10-07T05:42:15.783Z,99.99
2022-10-07T05:43:15.773Z,99.99
2022-10-07T05:44:15.783Z,99.99
2022-10-07T05:45:15.785Z,99.99
2022-10-07T05:46:15.819Z,99.99
2022-10-07T05:47:15.764Z,99.99
2022-10-07T05:48:15.778Z,99.99
2022-10-07T05:49:15.788Z,99.99
2022-10-07T05:50:15.819Z,99.99
2022-10-07T05:51:15.780Z,99.99
2022-10-07T05:52:15.772Z,99.99
2022-10-07T05:53:15.761Z,99.99
2022-10-07T05:54:15.775Z,99.99
2022-10-07T05:55:15.785Z,99.99
2022-10-07T05:56:15.784Z,99.99
2022-10-07T05:57:15.741Z,99.99
2022-10-07T05:58:15.752Z,99.99
2022-10-07T05:59:15.752Z,99.99
2022-10-07T06:00:15.766Z,99.99
2022-10-07T06:01:15.771Z,99.99
2022-10-07T06:02:15.955Z,99.99
2022-10-07T06:03:15.840Z,99.99
2022-10-07T06:04:15.747Z,99.99
2022-10-07T06:05:15.739Z,99.99
2022-10-07T06:06:15.750Z,99.99
2022-10-07T06:07:20.186Z,99.99
2022-10-07T06:08:15.733Z,99.99
2022-10-07T06:09:15.746Z,99.99
2022-10-07T06:10:15.715Z,99.99
2022-10-07T06:11:15.718Z,99.99
2022-10-07T06:12:15.742Z,99.99
2022-10-07T06:13:15.723Z,99.99
2022-10-07T06:14:15.715Z,99.99
2022-10-07T06:15:15.723Z,99.99
2022-10-07T06:16:15.734Z,99.99
2022-10-07T06:17:15.748Z,99.99
2022-10-07T06:18:15.719Z,99.99
2022-10-07T06:19:15.702Z,99.99
2022-10-07T06:20:15.697Z,99.99
2022-10-07T06:21:15.709Z,99.99
2022-10-07T06:22:15.718Z,99.99
2022-10-07T06:23:15.721Z,99.65
2022-10-07T06:24:15.694Z,98.99
2022-10-07T06:25:15.703Z,99.08
2022-10-07T06:26:15.684Z,98.99
2022-10-07T06:27:15.700Z,99.08
2022-10-07T06:28:15.747Z,98.70
2022-10-07T06:29:15.687Z,98.70
2022-10-07T06:30:15.683Z,98.51
2022-10-07T06:31:15.739Z,98.79
2022-10-07T06:32:15.685Z,99.99
2022-10-07T06:33:15.679Z,99.99
2022-10-07T06:34:15.672Z,99.99
2022-10-07T06:35:15.688Z,99.99
2022-10-07T06:36:15.686Z,99.99
2022-10-07T06:37:15.692Z,99.99
2022-10-07T06:38:15.692Z,99.99
2022-10-07T06:39:15.695Z,99.99
2022-10-07T06:40:15.682Z,99.99
2022-10-07T06:41:15.664Z,99.99
2022-10-07T06:42:15.675Z,99.99
2022-10-07T06:43:15.677Z,99.99
2022-10-07T06:44:15.668Z,99.99
2022-10-07T06:45:15.684Z,99.99
2022-10-07T06:46:15.722Z,99.99
2022-10-07T06:47:15.658Z,99.99
2022-10-07T06:48:15.656Z,99.99
2022-10-07T06:49:15.650Z,99.99
2022-10-07T06:50:15.676Z,99.99
2022-10-07T06:51:15.648Z,99.99
2022-10-07T06:52:15.689Z,99.99
2022-10-07T06:53:15.658Z,99.99
2022-10-07T06:54:15.665Z,99.99
2022-10-07T06:55:15.677Z,99.99
2022-10-07T06:56:15.660Z,99.99
2022-10-07T06:57:40.500Z,99.99
2022-10-07T06:58:15.645Z,98.66
2022-10-07T06:59:15.632Z,97.71
2022-10-07T07:00:15.644Z,96.32
2022-10-07T07:01:15.661Z,94.93
2022-10-07T07:02:15.674Z,95.03
2022-10-07T07:03:15.626Z,93.26
2022-10-07T07:04:15.644Z,92.50
2022-10-07T07:05:15.639Z,91.11
2022-10-07T07:06:15.624Z,89.96
2022-10-07T07:07:15.631Z,89.67
2022-10-07T07:08:15.635Z,89.01
2022-10-07T07:09:15.629Z,88.48
2022-10-07T07:10:15.618Z,88.29
2022-10-07T07:11:15.637Z,88.19
2022-10-07T07:12:15.627Z,87.71
2022-10-07T07:13:16.603Z,87.23
2022-10-07T07:14:15.626Z,87.08
2022-10-07T07:15:15.616Z,86.36
2022-10-07T07:16:15.659Z,85.31
2022-10-07T07:17:15.649Z,84.49
2022-10-07T07:18:15.613Z,83.63
2022-10-07T07:19:15.622Z,82.67
2022-10-07T07:20:15.630Z,82.57
2022-10-07T07:21:15.626Z,82.57
2022-10-07T07:22:15.650Z,83.05
2022-10-07T07:23:15.620Z,82.32
2022-10-07T07:24:15.627Z,81.43
2022-10-07T07:25:15.615Z,81.90
2022-10-07T07:26:15.634Z,82.19
2022-10-07T07:27:15.622Z,82.09
2022-10-07T07:28:15.752Z,81.81
2022-10-07T07:29:15.629Z,82.29
2022-10-07T07:30:15.636Z,82.09
2022-10-07T07:31:15.668Z,82.62
2022-10-07T07:32:15.622Z,81.79
2022-10-07T07:33:15.622Z,81.89
2022-10-07T07:34:15.651Z,81.26
2022-10-07T07:35:15.620Z,80.68
2022-10-07T07:36:15.633Z,78.96
2022-10-07T07:37:15.620Z,78.86
2022-10-07T07:38:15.626Z,78.19
2022-10-07T07:39:15.646Z,78.00
2022-10-07T07:40:15.628Z,78.00
2022-10-07T07:41:15.631Z,78.19
2022-10-07T07:42:15.725Z,78.09
2022-10-07T07:43:15.627Z,78.09
2022-10-07T07:44:15.632Z,78.77
2022-10-07T07:45:15.650Z,79.24
2022-10-07T07:46:15.686Z,79.34
2022-10-07T07:47:15.629Z,78.99
2022-10-07T07:48:15.635Z,78.42
2022-10-07T07:49:15.645Z,78.08
2022-10-07T07:50:15.648Z,76.92
2022-10-07T07:51:15.653Z,77.40
2022-10-07T07:52:15.639Z,76.64
2022-10-07T07:53:15.640Z,77.01
2022-10-07T07:54:15.654Z,76.40
2022-10-07T07:55:15.679Z,77.01
2022-10-07T07:56:15.658Z,76.98
2022-10-07T07:57:15.642Z,77.08
2022-10-07T07:58:15.658Z,77.26
2022-10-07T07:59:15.658Z,77.21
2022-10-07T08:00:15.677Z,77.69
2022-10-07T08:01:15.775Z,77.78
2022-10-07T08:02:15.699Z,77.11
2022-10-07T08:03:15.677Z,76.92
2022-10-07T08:04:15.662Z,76.73
2022-10-07T08:05:18.981Z,76.39
2022-10-07T08:06:15.671Z,75.81
2022-10-07T08:07:15.676Z,76.19
2022-10-07T08:08:15.688Z,76.19
2022-10-07T08:09:15.690Z,75.13
2022-10-07T08:10:15.685Z,75.23
2022-10-07T08:11:15.683Z,75.56
2022-10-07T08:12:15.690Z,75.46
2022-10-07T08:13:15.688Z,75.17
2022-10-07T08:14:15.697Z,75.94
2022-10-07T08:15:15.696Z,74.88
2022-10-07T08:16:15.761Z,74.50
2022-10-07T08:17:15.712Z,73.63
2022-10-07T08:18:15.707Z,73.54
2022-10-07T08:19:15.709Z,74.40
2022-10-07T08:20:15.702Z,74.88
2022-10-07T08:21:15.712Z,74.40
2022-10-07T08:22:15.729Z,73.83
2022-10-07T08:23:15.729Z,73.19
2022-10-07T08:24:15.731Z,73.67
2022-10-07T08:25:15.715Z,73.71
2022-10-07T08:26:15.720Z,73.22
2022-10-07T08:27:15.737Z,72.36
2022-10-07T08:28:15.768Z,72.26
2022-10-07T08:29:15.749Z,71.97
2022-10-07T08:30:15.808Z,72.74
2022-10-07T08:31:15.771Z,72.65
2022-10-07T08:32:15.745Z,72.49
2022-10-07T08:33:15.744Z,72.20
2022-10-07T08:34:15.782Z,72.20
2022-10-07T08:35:15.753Z,70.86
2022-10-07T08:36:15.760Z,71.24
2022-10-07T08:37:15.774Z,71.04
2022-10-07T08:38:15.773Z,71.91
2022-10-07T08:39:15.796Z,71.14
2022-10-07T08:40:15.803Z,71.24
2022-10-07T08:41:15.792Z,71.34
2022-10-07T08:42:15.788Z,71.88
2022-10-07T08:43:15.805Z,71.40
2022-10-07T08:44:16.895Z,71.81
2022-10-07T08:45:15.806Z,71.14
2022-10-07T08:46:15.875Z,71.04
2022-10-07T08:47:15.814Z,69.83
2022-10-07T08:48:15.833Z,70.02
2022-10-07T08:49:15.828Z,69.73
2022-10-07T08:50:19.532Z,69.79
2022-10-07T08:51:15.859Z,70.37
2022-10-07T08:52:15.850Z,71.24
2022-10-07T08:53:15.862Z,70.98
2022-10-07T08:54:15.875Z,70.70
2022-10-07T08:55:15.879Z,69.87
2022-10-07T08:56:15.890Z,69.19
2022-10-07T08:57:15.892Z,68.71
2022-10-07T08:58:15.902Z,69.03
2022-10-07T08:59:15.893Z,67.94
2022-10-07T09:00:15.911Z,68.65
2022-10-07T09:01:16.028Z,67.23
2022-10-07T09:02:16.048Z,67.71
2022-10-07T09:03:15.921Z,66.56
2022-10-07T09:04:15.943Z,66.56
2022-10-07T09:05:15.948Z,65.91
2022-10-07T09:06:15.971Z,66.11
2022-10-07T09:07:15.949Z,65.95
2022-10-07T09:08:15.959Z,66.14
2022-10-07T09:09:15.971Z,64.63
2022-10-07T09:10:15.974Z,64.14
2022-10-07T09:11:16.131Z,63.89
2022-10-07T09:12:15.986Z,63.21
2022-10-07T09:13:16.011Z,62.63
2022-10-07T09:14:16.000Z,61.95
2022-10-07T09:15:16.008Z,62.73
2022-10-07T09:16:16.099Z,62.95
2022-10-07T09:17:16.035Z,62.15
2022-10-07T09:18:16.053Z,61.47
2022-10-07T09:19:16.060Z,62.18
2022-10-07T09:20:16.053Z,61.79
2022-10-07T09:21:16.101Z,61.05
2022-10-07T09:22:16.070Z,60.95
2022-10-07T09:23:16.104Z,60.27
2022-10-07T09:24:16.095Z,60.30
2022-10-07T09:25:16.119Z,60.50
2022-10-07T09:26:16.106Z,59.94
2022-10-07T09:27:16.128Z,57.69
2022-10-07T09:28:16.168Z,58.14
2022-10-07T09:29:16.134Z,58.60
2022-10-07T09:30:16.176Z,59.25
2022-10-07T09:31:16.251Z,60.21
2022-10-07T09:32:16.190Z,60.50
2022-10-07T09:33:16.193Z,61.08
2022-10-07T09:34:16.198Z,61.18
2022-10-07T09:35:16.215Z,61.37
2022-10-07T09:36:16.220Z,61.05
2022-10-07T09:37:16.214Z,61.27
2022-10-07T09:38:16.222Z,60.67
2022-10-07T09:39:16.239Z,60.83
2022-10-07T09:40:16.250Z,61.02
2022-10-07T09:41:16.274Z,61.12
2022-10-07T09:42:16.246Z,61.12
2022-10-07T09:43:16.270Z,61.22
2022-10-07T09:44:16.278Z,61.77
2022-10-07T09:45:16.281Z,61.67
2022-10-07T09:46:16.338Z,62.05
2022-10-07T09:47:16.291Z,62.12
2022-10-07T09:48:16.302Z,63.09
2022-10-07T09:49:18.177Z,63.54
2022-10-07T09:50:24.704Z,63.15
2022-10-07T09:51:16.335Z,64.21
2022-10-07T09:52:16.337Z,64.28
2022-10-07T09:53:16.365Z,64.47
2022-10-07T09:54:16.347Z,64.95
2022-10-07T09:55:16.351Z,66.36
2022-10-07T09:56:16.366Z,66.07
2022-10-07T09:57:18.920Z,66.17
2022-10-07T09:58:16.388Z,65.75
2022-10-07T09:59:17.229Z,65.85
2022-10-07T10:00:16.386Z,66.91
2022-10-07T10:01:16.385Z,67.00
2022-10-07T10:02:16.442Z,66.71
2022-10-07T10:03:16.447Z,66.88
2022-10-07T10:04:16.426Z,67.55
2022-10-07T10:05:16.411Z,68.41
2022-10-07T10:06:16.428Z,68.26
2022-10-07T10:07:16.431Z,67.93
2022-10-07T10:08:16.430Z,68.06
2022-10-07T10:09:20.121Z,67.49
2022-10-07T10:10:16.446Z,67.68
2022-10-07T10:11:16.454Z,67.13
2022-10-07T10:12:16.466Z,66.97
2022-10-07T10:13:16.467Z,66.30
2022-10-07T10:14:16.479Z,65.14
2022-10-07T10:15:16.484Z,64.89
2022-10-07T10:16:16.566Z,64.15
2022-10-07T10:17:16.535Z,64.72
2022-10-07T10:18:16.499Z,63.47
2022-10-07T10:19:16.506Z,63.50
2022-10-07T10:20:16.493Z,62.66
2022-10-07T10:21:16.511Z,62.31
2022-10-07T10:22:16.537Z,61.37
2022-10-07T10:23:16.537Z,60.05
2022-10-07T10:24:17.227Z,58.92
2022-10-07T10:25:16.555Z,57.86
2022-10-07T10:26:16.566Z,56.72
2022-10-07T10:27:16.567Z,56.94
2022-10-07T10:28:16.650Z,56.16
2022-10-07T10:29:16.583Z,55.42
2022-10-07T10:30:16.594Z,55.32
2022-10-07T10:31:16.661Z,54.26
2022-10-07T10:32:16.605Z,53.65
2022-10-07T10:33:16.611Z,55.17
2022-10-07T10:34:16.641Z,55.30
2022-10-07T10:35:16.621Z,55.00
2022-10-07T10:36:16.637Z,54.55
2022-10-07T10:37:16.650Z,54.84
2022-10-07T10:38:16.745Z,55.42
2022-10-07T10:39:16.663Z,54.16
2022-10-07T10:40:16.674Z,53.58
2022-10-07T10:41:16.695Z,54.16
2022-10-07T10:42:16.691Z,54.81
2022-10-07T10:43:16.686Z,55.10
2022-10-07T10:44:16.715Z,55.10
2022-10-07T10:45:16.727Z,55.58
2022-10-07T10:46:16.756Z,55.98
2022-10-07T10:47:16.723Z,55.40
2022-10-07T10:48:16.747Z,54.23
2022-10-07T10:49:16.754Z,54.55
2022-10-07T10:50:16.770Z,53.67
2022-10-07T10:51:16.768Z,54.06
2022-10-07T10:52:16.761Z,53.61
2022-10-07T10:53:16.788Z,53.31
2022-10-07T10:54:16.788Z,52.83
2022-10-07T10:55:16.845Z,52.76
2022-10-07T10:56:16.807Z,52.18
2022-10-07T10:57:16.813Z,51.40
2022-10-07T10:58:16.814Z,51.91
2022-10-07T10:59:16.826Z,51.14
2022-10-07T11:00:16.847Z,50.72
2022-10-07T11:01:16.837Z,51.04
2022-10-07T11:02:16.908Z,50.24
2022-10-07T11:03:16.875Z,51.33
2022-10-07T11:04:16.862Z,51.04
2022-10-07T11:05:16.904Z,51.04
2022-10-07T11:06:16.876Z,51.14
2022-10-07T11:07:16.890Z,51.43
2022-10-07T11:08:16.911Z,50.56
2022-10-07T11:09:16.903Z,50.74
2022-10-07T11:10:16.940Z,50.62
2022-10-07T11:11:16.933Z,50.60
2022-10-07T11:12:16.969Z,51.18
2022-10-07T11:13:19.680Z,51.96
2022-10-07T11:14:16.957Z,51.47
2022-10-07T11:15:16.954Z,52.15
2022-10-07T11:16:17.039Z,52.64
2022-10-07T11:17:16.994Z,52.56
2022-10-07T11:18:17.019Z,51.11
2022-10-07T11:19:17.013Z,50.46
2022-10-07T11:20:17.046Z,50.65
2022-10-07T11:21:17.034Z,50.77
2022-10-07T11:22:17.048Z,49.99
2022-10-07T11:23:17.035Z,49.44
2022-10-07T11:24:17.045Z,49.37
2022-10-07T11:25:17.057Z,48.13
2022-10-07T11:26:17.053Z,47.93
2022-10-07T11:27:17.061Z,47.15
2022-10-07T11:28:17.142Z,47.83
2022-10-07T11:29:17.082Z,47.74
2022-10-07T11:30:17.177Z,47.76
2022-10-07T11:31:17.185Z,47.20
2022-10-07T11:32:17.124Z,47.42
2022-10-07T11:33:17.141Z,47.53
2022-10-07T11:34:17.151Z,45.10
2022-10-07T11:35:17.125Z,44.49
2022-10-07T11:36:17.159Z,45.00
2022-10-07T11:37:17.178Z,44.69
2022-10-07T11:38:17.154Z,44.45
2022-10-07T11:39:17.185Z,45.32
2022-10-07T11:40:17.230Z,45.89
2022-10-07T11:41:17.177Z,46.28
2022-10-07T11:42:17.202Z,46.59
2022-10-07T11:43:17.236Z,46.01
2022-10-07T11:44:17.242Z,46.03
2022-10-07T11:45:17.215Z,45.06
2022-10-07T11:46:17.254Z,44.86
2022-10-07T11:47:17.241Z,44.18
2022-10-07T11:48:17.235Z,44.67
2022-10-07T11:49:17.244Z,44.38
2022-10-07T11:50:17.278Z,44.06
2022-10-07T11:51:17.255Z,45.32
2022-10-07T11:52:17.251Z,45.62
2022-10-07T11:53:17.258Z,45.15
2022-10-07T11:54:17.287Z,44.74
2022-10-07T11:55:17.269Z,45.11
2022-10-07T11:56:17.290Z,46.25
2022-10-07T11:57:17.291Z,46.35
2022-10-07T11:58:17.289Z,46.84
2022-10-07T11:59:17.310Z,46.57
2022-10-07T12:00:17.303Z,47.30
2022-10-07T12:01:17.304Z,47.66
2022-10-07T12:02:17.349Z,48.15
2022-10-07T12:03:17.376Z,48.44
2022-10-07T12:04:17.357Z,48.71
2022-10-07T12:05:17.366Z,49.77
2022-10-07T12:06:17.344Z,49.27
2022-10-07T12:07:17.391Z,49.95
2022-10-07T12:08:17.359Z,50.24
2022-10-07T12:09:17.356Z,50.99
2022-10-07T12:10:17.371Z,50.41
2022-10-07T12:11:17.406Z,49.99
2022-10-07T12:12:17.381Z,50.19
2022-10-07T12:13:17.380Z,50.35
2022-10-07T12:14:17.376Z,50.82
2022-10-07T12:15:17.396Z,51.95
2022-10-07T12:16:17.458Z,52.87
2022-10-07T12:17:17.418Z,54.03
2022-10-07T12:18:17.460Z,54.77
2022-10-07T12:19:18.855Z,54.68
2022-10-07T12:20:17.410Z,54.58
2022-10-07T12:21:17.419Z,55.35
2022-10-07T12:22:17.433Z,55.45
2022-10-07T12:23:17.443Z,55.35
2022-10-07T12:24:17.458Z,55.33
2022-10-07T12:25:17.447Z,55.33
2022-10-07T12:26:17.439Z,55.52
2022-10-07T12:27:17.447Z,55.42
2022-10-07T12:28:17.539Z,54.84
2022-10-07T12:29:17.478Z,54.84
2022-10-07T12:30:17.464Z,55.04
2022-10-07T12:31:17.539Z,55.23
2022-10-07T12:32:17.470Z,55.42
2022-10-07T12:33:17.489Z,54.75
2022-10-07T12:34:17.514Z,55.13
2022-10-07T12:35:17.490Z,56.00
2022-10-07T12:36:17.495Z,56.48
2022-10-07T12:37:17.506Z,56.87
2022-10-07T12:38:17.495Z,56.29
2022-10-07T12:39:17.527Z,56.68
2022-10-07T12:40:17.522Z,56.87
2022-10-07T12:41:17.531Z,57.26
2022-10-07T12:42:17.517Z,57.93
2022-10-07T12:43:17.553Z,56.77
2022-10-07T12:44:17.546Z,57.06
2022-10-07T12:45:17.549Z,56.16
2022-10-07T12:46:17.722Z,56.84
2022-10-07T12:47:18.523Z,55.88
2022-10-07T12:48:17.548Z,55.20
2022-10-07T12:49:17.567Z,55.78
2022-10-07T12:50:17.587Z,55.10
2022-10-07T12:51:17.568Z,55.27
2022-10-07T12:52:17.572Z,54.31